Time;durP1;ratioP1;P1;durP2;ratioP2;P2;SDS_P1;SDS_P2;PMS_P1;PMS_P2;Temp;Humidity;BMP_temperature;BMP_pressure;BME280_temperature;BME280_humidity;BME280_pressure;Samples;Min_cycle;Max_cycle;Signal;HPM_P1;HPM_P2
2021/01/25 00:01:17;;;;;;;;;;;0.40;99.90;;;;;;5138242;27;19934;-85
2021/01/25 00:03:42;;;;;;;;;;;0.50;99.90;;;;;;5120345;27;19907;-85
2021/01/25 00:06:08;;;;;;;;;;;0.50;99.90;;;;;;5119025;27;19911;-85
2021/01/25 00:08:36;;;;;;;;;;;0.50;99.90;;;;;;5119533;27;19957;-85
2021/01/25 00:11:02;;;;;;;;;;;0.50;99.90;;;;;;5119359;27;19912;-85
2021/01/25 00:13:35;;;;;;;;;;;0.50;99.90;;;;;;5137619;27;19952;-85
2021/01/25 00:16:04;;;;;;;;;;;0.60;99.90;;;;;;5138254;27;19915;-85
2021/01/25 00:18:32;;;;;;;;;;;0.50;99.90;;;;;;5119518;27;20356;-85
2021/01/25 00:20:58;;;;;;;;;;;0.50;99.90;;;;;;5119486;27;19908;-85
2021/01/25 00:23:24;;;;;;;;;;;0.50;99.90;;;;;;5115820;27;19911;-84
2021/01/25 00:25:50;;;;;;;;;;;0.50;99.90;;;;;;5118381;27;19986;-86
2021/01/25 00:28:15;;;;;;;;;;;0.50;99.90;;;;;;5118923;27;19916;-86
2021/01/25 00:30:41;;;;;;;;;;;0.50;99.90;;;;;;5115571;27;19941;-86
2021/01/25 00:33:07;;;;;;;;;;;0.60;99.90;;;;;;5118568;27;19908;-85
2021/01/25 00:35:32;;;;;;;;;;;0.60;99.90;;;;;;5119392;27;19911;-85
2021/01/25 00:37:58;;;;;;;;;;;0.60;99.90;;;;;;5137919;27;19935;-85
2021/01/25 00:40:31;;;;;;;;;;;0.60;99.90;;;;;;5118987;27;19919;-85
2021/01/25 00:42:57;;;;;;;;;;;0.60;99.90;;;;;;5118925;27;19908;-85
2021/01/25 00:45:22;;;;;;;;;;;0.60;99.90;;;;;;5118657;27;20241;-85
2021/01/25 00:47:48;;;;;;;;;;;0.60;99.90;;;;;;5131850;27;20375;-85
2021/01/25 00:50:14;;;;;;;;;;;0.60;99.90;;;;;;5115993;27;20297;-85
2021/01/25 00:52:42;;;;;;;;;;;0.60;99.90;;;;;;5119257;27;20324;-86
2021/01/25 00:55:10;;;;;;;;;;;0.70;99.90;;;;;;5119315;27;19914;-85
2021/01/25 00:57:38;;;;;;;;;;;0.70;99.90;;;;;;5119230;27;19908;-85
2021/01/25 01:00:08;;;;;;;;;;;0.70;99.90;;;;;;5137599;27;19928;-85
2021/01/25 01:02:34;;;;;;;;;;;0.70;99.90;;;;;;5136662;27;19922;-86
2021/01/25 01:05:03;;;;;;;;;;;0.70;99.90;;;;;;5137296;27;19994;-86
2021/01/25 01:07:28;;;;;;;;;;;0.70;99.90;;;;;;5116083;27;19919;-85
2021/01/25 01:09:56;;;;;;;;;;;0.70;99.90;;;;;;5118027;27;20320;-85
2021/01/25 01:12:25;;;;;;;;;;;0.70;99.90;;;;;;5136584;27;19908;-86
2021/01/25 01:14:50;;;;;;;;;;;0.80;99.90;;;;;;5137475;27;19955;-85
2021/01/25 01:17:16;;;;;;;;;;;0.80;99.90;;;;;;5131181;27;19918;-85
2021/01/25 01:19:42;;;;;;;;;;;0.80;99.90;;;;;;5136813;27;20399;-85
2021/01/25 01:22:13;;;;;;;;;;;0.70;99.90;;;;;;5115049;27;19914;-85
2021/01/25 01:24:41;;;;;;;;;;;0.70;99.90;;;;;;5137571;27;20399;-86
2021/01/25 01:27:06;;;;;;;;;;;0.70;99.90;;;;;;5136354;27;19919;-85
2021/01/25 01:29:32;;;;;;;;;;;0.70;99.90;;;;;;5117889;27;20272;-85
2021/01/25 01:31:58;;;;;;;;;;;0.70;99.90;;;;;;5133885;27;19912;-86
2021/01/25 01:34:23;;;;;;;;;;;0.70;99.90;;;;;;5118327;27;19907;-86
2021/01/25 01:36:56;;;;;;;;;;;0.70;99.90;;;;;;5118584;27;20018;-85
2021/01/25 01:39:29;;;;;;;;;;;0.70;99.90;;;;;;5118261;27;19907;-85
2021/01/25 01:41:58;;;;;;;;;;;0.70;99.90;;;;;;5118549;27;19907;-85
2021/01/25 01:44:26;;;;;;;;;;;0.70;99.90;;;;;;5136529;27;19952;-85
2021/01/25 01:46:53;;;;;;;;;;;0.70;99.90;;;;;;5136116;27;19915;-85
2021/01/25 01:49:21;;;;;;;;;;;0.70;99.90;;;;;;5112824;27;19936;-85
2021/01/25 01:51:54;;;;;;;;;;;0.70;99.90;;;;;;5135431;27;19955;-86
2021/01/25 01:54:27;;;;;;;;;;;0.70;99.90;;;;;;5113214;28;19941;-85
2021/01/25 01:56:53;;;;;;;;;;;0.80;99.90;;;;;;5117280;28;19908;-86
2021/01/25 01:59:19;;;;;;;;;;;0.80;99.90;;;;;;5112845;28;19943;-85
2021/01/25 02:01:47;;;;;;;;;;;0.80;99.90;;;;;;5134141;28;19923;-85
2021/01/25 02:04:20;;;;;;;;;;;0.80;99.90;;;;;;5114640;28;19994;-86
2021/01/25 02:06:46;;;;;;;;;;;0.80;99.90;;;;;;5135602;28;19933;-86
2021/01/25 02:09:12;;;;;;;;;;;0.80;99.90;;;;;;5134899;28;19912;-86
2021/01/25 02:11:41;;;;;;;;;;;0.80;99.90;;;;;;5118099;28;19969;-85
2021/01/25 02:14:09;;;;;;;;;;;0.90;99.90;;;;;;5118116;28;19952;-86
2021/01/25 02:16:55;;;;;;;;;;;0.90;99.90;;;;;;5118039;28;20339;-86
2021/01/25 02:19:36;;;;;;;;;;;0.90;99.90;;;;;;5118326;28;19909;-86
2021/01/25 02:22:09;;;;;;;;;;;0.90;99.90;;;;;;5135690;28;19915;-86
2021/01/25 02:24:45;;;;;;;;;;;0.90;99.90;;;;;;5118187;28;19907;-86
2021/01/25 02:27:19;;;;;;;;;;;0.90;99.90;;;;;;5117712;28;20397;-86
2021/01/25 02:29:45;;;;;;;;;;;0.90;99.90;;;;;;5136520;28;19908;-86
2021/01/25 02:32:13;;;;;;;;;;;0.90;99.90;;;;;;5118201;27;19911;-86
2021/01/25 02:34:47;;;;;;;;;;;0.90;99.90;;;;;;5117091;27;19953;-85
2021/01/25 02:37:13;;;;;;;;;;;0.90;99.90;;;;;;5138351;27;19933;-86
2021/01/25 02:39:39;;;;;;;;;;;0.90;99.90;;;;;;5139313;27;19908;-86
2021/01/25 02:42:07;;;;;;;;;;;0.90;99.90;;;;;;5138275;27;19916;-85
2021/01/25 02:44:33;;;;;;;;;;;0.90;99.90;;;;;;5121073;27;20356;-86
2021/01/25 02:46:59;;;;;;;;;;;0.90;99.90;;;;;;5118144;27;20002;-86
2021/01/25 02:49:25;;;;;;;;;;;0.80;99.90;;;;;;5121221;27;19943;-86
2021/01/25 02:51:51;;;;;;;;;;;0.80;99.90;;;;;;5116047;27;19911;-86
2021/01/25 02:54:19;;;;;;;;;;;0.80;99.90;;;;;;5120875;27;19907;-86
2021/01/25 02:56:46;;;;;;;;;;;0.80;99.90;;;;;;5123397;27;19915;-85
2021/01/25 02:59:12;;;;;;;;;;;0.80;99.90;;;;;;5128623;27;19908;-86
2021/01/25 03:01:37;;;;;;;;;;;0.70;99.90;;;;;;5121124;27;19926;-86
2021/01/25 03:04:04;;;;;;;;;;;0.70;99.90;;;;;;5133462;27;20314;-86
2021/01/25 03:06:30;;;;;;;;;;;0.70;99.90;;;;;;5121550;27;19916;-85
2021/01/25 03:08:55;;;;;;;;;;;0.70;99.90;;;;;;5120549;27;20304;-86
2021/01/25 03:11:23;;;;;;;;;;;0.60;99.90;;;;;;5139614;27;19908;-86
2021/01/25 03:13:49;;;;;;;;;;;0.60;99.90;;;;;;5138244;27;20327;-86
2021/01/25 03:16:16;;;;;;;;;;;0.60;99.90;;;;;;5120926;27;19911;-85
2021/01/25 03:18:42;;;;;;;;;;;0.60;99.90;;;;;;5139319;27;19914;-85
2021/01/25 03:21:08;;;;;;;;;;;0.50;99.90;;;;;;5116601;27;19907;-85
2021/01/25 03:23:39;;;;;;;;;;;0.50;99.90;;;;;;5138034;27;19907;-85
2021/01/25 03:26:05;;;;;;;;;;;0.50;99.90;;;;;;5079232;28;19919;-86
2021/01/25 03:28:30;;;;;;;;;;;0.50;99.90;;;;;;5079018;28;19912;-86
2021/01/25 03:30:56;;;;;;;;;;;0.50;99.90;;;;;;5095666;28;19908;-85
2021/01/25 03:33:25;;;;;;;;;;;0.40;99.90;;;;;;5089046;28;19908;-86
2021/01/25 03:35:51;;;;;;;;;;;0.40;99.90;;;;;;5078872;28;19912;-85
2021/01/25 03:38:16;;;;;;;;;;;0.40;99.90;;;;;;5078671;28;19908;-85
2021/01/25 03:40:47;;;;;;;;;;;0.40;99.90;;;;;;5072925;28;19956;-86
2021/01/25 03:43:16;;;;;;;;;;;0.40;99.90;;;;;;5078462;28;19909;-86
2021/01/25 03:45:42;;;;;;;;;;;0.30;99.90;;;;;;5091735;28;19912;-85
2021/01/25 03:48:08;;;;;;;;;;;0.30;99.90;;;;;;5078376;28;19923;-85
2021/01/25 03:50:34;;;;;;;;;;;0.30;99.90;;;;;;5116547;27;20299;-85
2021/01/25 03:53:02;;;;;;;;;;;0.30;99.90;;;;;;5119584;27;20288;-83
2021/01/25 03:55:38;;;;;;;;;;;0.20;99.90;;;;;;5119858;27;20026;-85
2021/01/25 03:58:13;;;;;;;;;;;0.20;99.90;;;;;;5138364;27;20358;-85
2021/01/25 04:00:41;;;;;;;;;;;0.20;99.90;;;;;;5117943;27;20372;-85
2021/01/25 04:03:06;;;;;;;;;;;0.20;99.90;;;;;;5134676;27;19912;-85
2021/01/25 04:05:35;;;;;;;;;;;0.10;99.90;;;;;;5136732;27;19941;-85
2021/01/25 04:08:01;;;;;;;;;;;0.10;99.90;;;;;;5136501;27;19922;-85
2021/01/25 04:10:46;;;;;;;;;;;0.10;99.90;;;;;;5119491;27;19908;-85
2021/01/25 04:13:14;;;;;;;;;;;0.00;99.90;;;;;;5134791;27;19907;-84
2021/01/25 04:15:49;;;;;;;;;;;0.00;99.90;;;;;;5137266;27;19911;-85
2021/01/25 04:18:26;;;;;;;;;;;0.00;99.90;;;;;;5117238;27;19911;-85
2021/01/25 04:20:57;;;;;;;;;;;0.00;99.90;;;;;;5116178;27;19912;-85
2021/01/25 04:23:25;;;;;;;;;;;-0.10;99.90;;;;;;5118609;27;19915;-85
2021/01/25 04:25:53;;;;;;;;;;;-0.10;99.90;;;;;;5119353;27;19915;-85
2021/01/25 04:28:22;;;;;;;;;;;-0.10;99.90;;;;;;5136778;27;19911;-86
2021/01/25 04:30:50;;;;;;;;;;;-0.20;99.90;;;;;;5119301;27;19954;-84
2021/01/25 04:33:16;;;;;;;;;;;-0.20;99.90;;;;;;5135867;27;19917;-84
2021/01/25 04:35:45;;;;;;;;;;;-0.30;99.90;;;;;;5137339;27;19908;-86
2021/01/25 04:38:11;;;;;;;;;;;-0.30;99.90;;;;;;5145928;27;19892;-85
2021/01/25 04:40:37;;;;;;;;;;;-0.40;99.90;;;;;;5144013;27;19907;-85
2021/01/25 04:43:06;;;;;;;;;;;-0.40;99.90;;;;;;5119011;27;20363;-85
2021/01/25 04:45:34;;;;;;;;;;;-0.50;99.90;;;;;;5118549;27;19911;-85
2021/01/25 04:48:02;;;;;;;;;;;-0.50;99.90;;;;;;5118433;27;19940;-85
2021/01/25 04:50:31;;;;;;;;;;;-0.60;99.90;;;;;;5118588;27;19914;-85
2021/01/25 04:53:00;;;;;;;;;;;-0.60;99.90;;;;;;5118336;27;19914;-85
2021/01/25 04:55:29;;;;;;;;;;;-0.70;99.90;;;;;;5118174;28;19915;-84
2021/01/25 04:58:00;;;;;;;;;;;-0.70;99.90;;;;;;5131903;27;19911;-84
2021/01/25 05:00:28;;;;;;;;;;;-0.80;99.90;;;;;;5137431;27;19965;-84
2021/01/25 05:02:56;;;;;;;;;;;-0.80;99.90;;;;;;5135667;27;19907;-84
2021/01/25 05:05:22;;;;;;;;;;;-0.90;99.90;;;;;;5135856;27;19907;-84
2021/01/25 05:07:50;;;;;;;;;;;-0.90;99.90;;;;;;5111844;27;19920;-84
2021/01/25 05:10:23;;;;;;;;;;;-0.90;99.90;;;;;;5118426;27;19908;-84
2021/01/25 05:12:50;;;;;;;;;;;-0.90;99.90;;;;;;5117663;27;19908;-85
2021/01/25 05:15:42;;;;;;;;;;;-0.90;99.90;;;;;;5118076;27;20284;-84
2021/01/25 05:18:13;;;;;;;;;;;-0.90;99.90;;;;;;5134623;27;19919;-84
2021/01/25 05:20:43;;;;;;;;;;;-1.00;99.90;;;;;;5135913;27;19937;-85
2021/01/25 05:23:15;;;;;;;;;;;-1.10;99.90;;;;;;5130980;27;19908;-84
2021/01/25 05:25:44;;;;;;;;;;;-1.10;99.90;;;;;;5119055;27;19957;-85
2021/01/25 05:28:22;;;;;;;;;;;-1.20;99.90;;;;;;5132759;27;20384;-84
2021/01/25 05:30:50;;;;;;;;;;;-1.30;99.90;;;;;;5135656;27;19952;-84
2021/01/25 05:33:28;;;;;;;;;;;-1.30;99.90;;;;;;5136476;27;19914;-84
2021/01/25 05:35:56;;;;;;;;;;;-1.40;99.90;;;;;;5135216;27;19914;-85
2021/01/25 05:38:22;;;;;;;;;;;-1.40;99.90;;;;;;5136240;27;19959;-85
2021/01/25 05:40:54;;;;;;;;;;;-1.50;99.90;;;;;;5117610;27;20307;-84
2021/01/25 05:43:19;;;;;;;;;;;-1.50;99.90;;;;;;5118668;27;19911;-84
2021/01/25 05:45:49;;;;;;;;;;;-1.60;99.90;;;;;;5118703;28;19908;-84
2021/01/25 05:48:17;;;;;;;;;;;-1.60;99.90;;;;;;5132937;27;19946;-84
2021/01/25 05:50:48;;;;;;;;;;;-1.60;99.90;;;;;;5133121;27;19911;-84
2021/01/25 05:53:19;;;;;;;;;;;-1.60;99.90;;;;;;5115374;28;20009;-84
2021/01/25 05:55:52;;;;;;;;;;;-1.70;99.90;;;;;;5141478;27;19906;-83
2021/01/25 05:58:24;;;;;;;;;;;-1.70;99.90;;;;;;5176238;27;19917;-83
2021/01/25 06:00:52;;;;;;;;;;;-1.70;99.90;;;;;;5146672;27;20399;-84
2021/01/25 06:03:23;;;;;;;;;;;-1.70;99.90;;;;;;5138057;27;20379;-84
2021/01/25 06:05:52;;;;;;;;;;;-1.70;99.90;;;;;;5137952;27;19907;-84
2021/01/25 06:08:29;;;;;;;;;;;-1.70;99.90;;;;;;5140897;27;19965;-84
2021/01/25 06:11:04;;;;;;;;;;;-1.70;99.90;;;;;;5141884;27;20363;-84
2021/01/25 06:14:05;;;;;;;;;;;-1.70;99.90;;;;;;5141160;27;19911;-84
2021/01/25 06:16:34;;;;;;;;;;;-1.70;99.90;;;;;;5104966;27;20427;-84
2021/01/25 06:19:01;;;;;;;;;;;-1.70;99.90;;;;;;5141442;27;20018;-84
2021/01/25 06:21:32;;;;;;;;;;;-1.70;99.90;;;;;;5138943;27;19911;-84
2021/01/25 06:24:01;;;;;;;;;;;-1.70;99.90;;;;;;5119868;27;19907;-84
2021/01/25 06:26:29;;;;;;;;;;;-1.70;99.90;;;;;;5122937;27;19923;-84
2021/01/25 06:29:01;;;;;;;;;;;-1.70;99.90;;;;;;5147337;27;19907;-84
2021/01/25 06:31:27;;;;;;;;;;;-1.80;99.90;;;;;;5121332;27;20010;-84
2021/01/25 06:33:53;;;;;;;;;;;-1.80;99.90;;;;;;5120999;27;19950;-84
2021/01/25 06:36:19;;;;;;;;;;;-1.80;99.90;;;;;;5120272;27;19915;-84
2021/01/25 06:38:49;;;;;;;;;;;-1.80;99.90;;;;;;5120277;27;19938;-85
2021/01/25 06:41:16;;;;;;;;;;;-1.80;99.90;;;;;;5120104;27;19954;-84
2021/01/25 06:43:45;;;;;;;;;;;-1.80;99.90;;;;;;5119631;27;19915;-83
2021/01/25 06:46:15;;;;;;;;;;;-1.80;99.90;;;;;;5120442;27;19920;-83
2021/01/25 06:48:40;;;;;;;;;;;-1.80;99.90;;;;;;5119628;27;19911;-83
2021/01/25 06:51:08;;;;;;;;;;;-1.90;99.90;;;;;;5138089;27;19914;-83
2021/01/25 06:53:35;;;;;;;;;;;-1.90;99.90;;;;;;5120287;27;19912;-85
2021/01/25 06:56:01;;;;;;;;;;;-1.90;99.90;;;;;;5138759;27;19907;-84
2021/01/25 06:58:28;;;;;;;;;;;-2.00;99.90;;;;;;5120027;27;19931;-85
2021/01/25 07:00:54;;;;;;;;;;;-2.00;99.90;;;;;;5119595;27;19920;-84
2021/01/25 07:03:21;;;;;;;;;;;-2.10;99.90;;;;;;5119971;27;19918;-84
2021/01/25 07:05:49;;;;;;;;;;;-2.10;99.90;;;;;;5133599;27;19911;-83
2021/01/25 07:08:21;;;;;;;;;;;-2.10;99.90;;;;;;5144054;27;19922;-83
2021/01/25 07:11:07;;;;;;;;;;;-2.10;99.90;;;;;;5140900;27;19908;-83
2021/01/25 07:13:34;;;;;;;;;;;-2.10;99.90;;;;;;5155941;27;19918;-84
2021/01/25 07:16:00;;;;;;;;;;;-2.10;99.90;;;;;;5179350;27;19911;-84
2021/01/25 07:18:27;;;;;;;;;;;-2.10;99.90;;;;;;5160951;27;19910;-84
2021/01/25 07:21:03;;;;;;;;;;;-2.20;99.90;;;;;;5149270;27;19980;-84
2021/01/25 07:23:31;;;;;;;;;;;-2.20;99.90;;;;;;5140308;27;19954;-84
2021/01/25 07:25:58;;;;;;;;;;;-2.20;99.90;;;;;;5140297;27;19930;-84
2021/01/25 07:28:24;;;;;;;;;;;-2.20;99.90;;;;;;5140722;27;19911;-83
2021/01/25 07:30:50;;;;;;;;;;;-2.20;99.90;;;;;;5139960;27;19967;-84
2021/01/25 07:33:17;;;;;;;;;;;-2.30;99.90;;;;;;5140310;27;19968;-83
2021/01/25 07:35:43;;;;;;;;;;;-2.30;99.90;;;;;;5140504;27;19959;-84
2021/01/25 07:38:08;;;;;;;;;;;-2.30;99.90;;;;;;5146265;27;19910;-84
2021/01/25 07:40:34;;;;;;;;;;;-2.40;99.90;;;;;;5158404;27;19934;-85
2021/01/25 07:43:01;;;;;;;;;;;-2.40;99.90;;;;;;5180270;27;19911;-82
2021/01/25 07:45:26;;;;;;;;;;;-2.30;99.90;;;;;;5161012;27;20335;-83
2021/01/25 07:47:52;;;;;;;;;;;-2.30;99.90;;;;;;5160910;27;19937;-83
2021/01/25 07:50:18;;;;;;;;;;;-2.30;99.90;;;;;;5154859;27;20339;-83
2021/01/25 07:52:43;;;;;;;;;;;-2.40;99.90;;;;;;5161416;27;20006;-83
2021/01/25 07:55:18;;;;;;;;;;;-2.30;99.90;;;;;;5179169;27;19915;-82
2021/01/25 07:57:44;;;;;;;;;;;-2.30;99.90;;;;;;5160879;27;19907;-84
2021/01/25 08:00:23;;;;;;;;;;;-2.30;99.90;;;;;;5081987;28;19977;-82
2021/01/25 08:03:12;;;;;;;;;;;-2.30;99.90;;;;;;5082090;28;20420;-84
2021/01/25 08:05:38;;;;;;;;;;;-2.30;99.90;;;;;;5061610;28;19914;-83
2021/01/25 08:08:04;;;;;;;;;;;-2.20;99.90;;;;;;5073970;28;19916;-83
2021/01/25 08:10:31;;;;;;;;;;;-2.30;99.90;;;;;;5074016;28;20401;-83
2021/01/25 08:12:59;;;;;;;;;;;-2.30;99.90;;;;;;5074188;28;20384;-83
2021/01/25 08:15:29;;;;;;;;;;;-2.20;99.90;;;;;;5074405;28;19950;-83
2021/01/25 08:18:00;;;;;;;;;;;-2.20;99.90;;;;;;5073612;28;20433;-83
2021/01/25 08:20:28;;;;;;;;;;;-2.10;99.90;;;;;;5056452;28;19908;-83
2021/01/25 08:23:12;;;;;;;;;;;-2.10;99.90;;;;;;5073611;28;20377;-83
2021/01/25 08:25:38;;;;;;;;;;;-2.10;99.90;;;;;;5056957;28;20007;-83
2021/01/25 08:28:23;;;;;;;;;;;-2.00;99.90;;;;;;5078462;28;19963;-82
2021/01/25 08:30:49;;;;;;;;;;;-1.90;99.90;;;;;;5100707;27;19917;-82
2021/01/25 08:33:35;;;;;;;;;;;-1.70;99.90;;;;;;5138449;27;19913;-84
2021/01/25 08:36:02;;;;;;;;;;;-1.70;99.90;;;;;;5139155;27;19914;-83
2021/01/25 08:38:30;;;;;;;;;;;-1.60;99.90;;;;;;5136334;27;20363;-83
2021/01/25 08:40:56;;;;;;;;;;;-1.30;99.90;;;;;;5138565;27;19926;-84
2021/01/25 08:43:25;;;;;;;;;;;-1.00;99.90;;;;;;5138869;27;20009;-83
2021/01/25 08:45:51;;;;;;;;;;;-0.50;99.90;;;;;;5138598;27;19911;-84
2021/01/25 08:48:23;;;;;;;;;;;0.30;99.90;;;;;;5138711;27;19919;-83
2021/01/25 08:50:50;;;;;;;;;;;1.00;99.90;;;;;;5139084;27;19918;-84
2021/01/25 08:53:26;;;;;;;;;;;1.50;99.90;;;;;;5152323;27;20295;-84
2021/01/25 08:55:55;;;;;;;;;;;1.70;99.90;;;;;;5138455;27;19907;-83
2021/01/25 08:58:25;;;;;;;;;;;2.00;99.90;;;;;;5154741;27;19907;-83
2021/01/25 09:00:51;;;;;;;;;;;2.10;99.90;;;;;;5138349;27;20295;-82
2021/01/25 09:03:17;;;;;;;;;;;2.40;99.90;;;;;;5126347;27;19918;-84
2021/01/25 09:05:42;;;;;;;;;;;2.80;99.90;;;;;;5118366;27;20253;-84
2021/01/25 09:08:09;;;;;;;;;;;3.10;99.90;;;;;;5136175;27;19921;-83
2021/01/25 09:10:34;;;;;;;;;;;3.30;99.90;;;;;;5131877;27;19907;-82
2021/01/25 09:13:00;;;;;;;;;;;3.40;99.90;;;;;;5128375;27;20290;-83
2021/01/25 09:15:26;;;;;;;;;;;3.60;99.90;;;;;;5117263;27;19914;-83
2021/01/25 09:17:56;;;;;;;;;;;3.90;99.90;;;;;;5117086;27;19911;-83
2021/01/25 09:20:23;;;;;;;;;;;4.40;99.90;;;;;;5121088;27;19939;-83
2021/01/25 09:22:52;;;;;;;;;;;4.70;99.90;;;;;;5117050;27;19914;-82
2021/01/25 09:25:19;;;;;;;;;;;5.30;99.90;;;;;;5131961;27;19911;-83
2021/01/25 09:27:45;;;;;;;;;;;6.40;99.90;;;;;;5122348;27;19915;-84
2021/01/25 09:30:12;;;;;;;;;;;7.30;99.90;;;;;;5118408;27;19915;-84
2021/01/25 09:32:38;;;;;;;;;;;7.70;99.90;;;;;;5113451;27;20379;-85
2021/01/25 09:35:05;;;;;;;;;;;7.80;99.90;;;;;;5117734;27;19908;-85
2021/01/25 09:37:32;;;;;;;;;;;8.10;99.90;;;;;;5131158;27;19908;-84
2021/01/25 09:39:58;;;;;;;;;;;8.50;99.90;;;;;;5117002;27;19992;-86
2021/01/25 09:42:23;;;;;;;;;;;9.10;97.70;;;;;;5119130;27;19918;-83
2021/01/25 09:44:49;;;;;;;;;;;9.80;94.20;;;;;;5123541;27;19954;-84
2021/01/25 09:47:14;;;;;;;;;;;10.70;90.40;;;;;;5118133;27;19915;-84
2021/01/25 09:49:40;;;;;;;;;;;11.20;82.70;;;;;;5136121;27;20002;-84
2021/01/25 09:52:06;;;;;;;;;;;10.80;77.70;;;;;;5112903;28;20391;-86
2021/01/25 09:54:31;;;;;;;;;;;10.00;80.40;;;;;;5095152;28;19908;-86
2021/01/25 09:56:57;;;;;;;;;;;9.00;83.30;;;;;;5090390;28;19953;-85
2021/01/25 09:59:23;;;;;;;;;;;8.10;85.80;;;;;;5094995;28;19908;-85
2021/01/25 10:02:05;;;;;;;;;;;;;;;;;;;;;
2021/01/25 10:04:31;;;;;;;;;;;6.50;88.70;;;;;;5115428;28;19908;-84
2021/01/25 10:06:57;;;;;;;;;;;6.00;90.60;;;;;;5101831;28;19957;-83
2021/01/25 10:09:23;;;;;;;;;;;5.50;91.30;;;;;;5112246;28;19908;-85
2021/01/25 10:11:49;;;;;;;;;;;5.10;92.10;;;;;;5112686;28;19914;-85
2021/01/25 10:14:15;;;;;;;;;;;4.80;92.50;;;;;;5096273;28;19907;-86
2021/01/25 10:16:41;;;;;;;;;;;4.60;93.80;;;;;;5103236;28;20076;-85
2021/01/25 10:19:16;;;;;;;;;;;4.60;96.50;;;;;;5091707;28;20486;-85
2021/01/25 10:21:43;;;;;;;;;;;5.00;99.10;;;;;;5095661;28;19915;-85
2021/01/25 10:24:08;;;;;;;;;;;6.10;97.20;;;;;;5115025;28;19908;-86
2021/01/25 10:26:35;;;;;;;;;;;7.60;94.40;;;;;;5115654;28;19945;-85
2021/01/25 10:29:01;;;;;;;;;;;9.00;88.60;;;;;;5123406;27;19915;-84
2021/01/25 10:31:26;;;;;;;;;;;10.20;76.40;;;;;;5137278;27;19953;-86
2021/01/25 10:33:52;;;;;;;;;;;11.10;70.50;;;;;;5137214;27;19908;-86
2021/01/25 10:36:18;;;;;;;;;;;12.10;68.10;;;;;;5136317;27;19929;-85
2021/01/25 10:38:44;;;;;;;;;;;12.80;64.50;;;;;;5137089;27;19966;-85
2021/01/25 10:41:13;;;;;;;;;;;13.60;62.00;;;;;;5156257;27;19938;-86
2021/01/25 10:43:39;;;;;;;;;;;14.30;59.80;;;;;;5137570;27;20002;-86
2021/01/25 10:46:05;;;;;;;;;;;14.80;56.50;;;;;;5155617;27;19910;-86
2021/01/25 10:48:34;;;;;;;;;;;14.60;54.30;;;;;;5133888;27;19968;-86
2021/01/25 10:50:59;;;;;;;;;;;13.90;54.30;;;;;;5136615;27;19911;-86
2021/01/25 10:53:25;;;;;;;;;;;12.70;57.00;;;;;;5137890;27;20321;-85
2021/01/25 10:55:51;;;;;;;;;;;11.50;60.90;;;;;;5141095;27;19914;-86
2021/01/25 10:58:16;;;;;;;;;;;10.50;64.50;;;;;;5141054;27;19907;-86
2021/01/25 11:00:44;;;;;;;;;;;9.70;67.20;;;;;;5159460;27;19919;-85
2021/01/25 11:03:10;;;;;;;;;;;9.00;69.10;;;;;;5159006;27;19907;-85
2021/01/25 11:05:35;;;;;;;;;;;8.40;71.20;;;;;;5152727;27;19919;-85
2021/01/25 11:08:01;;;;;;;;;;;8.10;73.40;;;;;;5159494;27;19919;-85
2021/01/25 11:10:28;;;;;;;;;;;7.90;74.30;;;;;;5158389;27;19911;-86
2021/01/25 11:12:55;;;;;;;;;;;8.00;76.00;;;;;;5158527;27;19907;-85
2021/01/25 11:15:23;;;;;;;;;;;8.60;73.80;;;;;;5158113;27;19954;-86
2021/01/25 11:17:49;;;;;;;;;;;9.60;71.70;;;;;;5119044;27;19934;-86
2021/01/25 11:20:15;;;;;;;;;;;10.70;68.10;;;;;;5118805;27;19907;-85
2021/01/25 11:22:41;;;;;;;;;;;11.70;65.50;;;;;;5136080;27;19908;-85
2021/01/25 11:25:07;;;;;;;;;;;12.70;61.80;;;;;;5127402;27;19908;-85
2021/01/25 11:27:34;;;;;;;;;;;13.30;58.30;;;;;;5132984;27;19965;-85
2021/01/25 11:29:59;;;;;;;;;;;13.80;56.00;;;;;;5136378;27;20419;-86
2021/01/25 11:32:26;;;;;;;;;;;14.30;55.00;;;;;;5130166;27;19907;-86
2021/01/25 11:34:51;;;;;;;;;;;14.60;54.10;;;;;;5112137;27;19998;-85
2021/01/25 11:37:19;;;;;;;;;;;15.10;52.90;;;;;;5118806;27;19935;-86
2021/01/25 11:39:45;;;;;;;;;;;15.20;52.80;;;;;;5120704;27;20300;-86
2021/01/25 11:42:11;;;;;;;;;;;15.70;52.40;;;;;;5109264;28;20008;-86
2021/01/25 11:44:37;;;;;;;;;;;15.90;50.60;;;;;;5125688;27;19938;-85
2021/01/25 11:47:03;;;;;;;;;;;15.70;50.50;;;;;;5119965;27;19922;-85
2021/01/25 11:49:28;;;;;;;;;;;15.90;51.00;;;;;;5126924;27;20003;-85
2021/01/25 11:51:54;;;;;;;;;;;16.00;50.20;;;;;;5114968;28;20050;-85
2021/01/25 11:54:20;;;;;;;;;;;15.90;49.70;;;;;;5098361;28;19911;-84
2021/01/25 11:56:46;;;;;;;;;;;15.80;51.20;;;;;;5115043;28;19947;-85
2021/01/25 11:59:12;;;;;;;;;;;16.20;50.00;;;;;;5097933;28;19954;-85
2021/01/25 12:01:38;;;;;;;;;;;16.20;48.70;;;;;;5097028;28;20007;-85
2021/01/25 12:04:04;;;;;;;;;;;16.00;49.80;;;;;;5114659;28;20376;-85
2021/01/25 12:06:30;;;;;;;;;;;16.00;50.10;;;;;;5092392;28;19923;-85
2021/01/25 12:08:55;;;;;;;;;;;16.20;49.90;;;;;;5136138;27;20284;-84
2021/01/25 12:11:22;;;;;;;;;;;16.40;49.80;;;;;;5145459;27;19961;-83
2021/01/25 12:13:47;;;;;;;;;;;16.20;49.60;;;;;;5153453;27;19911;-84
2021/01/25 12:16:15;;;;;;;;;;;16.20;49.70;;;;;;5171789;27;19950;-84
2021/01/25 12:18:41;;;;;;;;;;;16.30;49.30;;;;;;5135948;27;19919;-84
2021/01/25 12:21:07;;;;;;;;;;;16.40;48.80;;;;;;5150178;27;19918;-84
2021/01/25 12:23:33;;;;;;;;;;;16.40;49.70;;;;;;5138159;27;19907;-84
2021/01/25 12:25:58;;;;;;;;;;;16.20;48.90;;;;;;5138146;27;20260;-84
2021/01/25 12:28:24;;;;;;;;;;;15.90;48.60;;;;;;5157730;27;19938;-84
2021/01/25 12:30:49;;;;;;;;;;;16.00;49.80;;;;;;5150830;27;19971;-84
2021/01/25 12:33:15;;;;;;;;;;;16.10;48.80;;;;;;5166572;27;20363;-83
2021/01/25 12:35:40;;;;;;;;;;;16.10;48.20;;;;;;5169201;27;20369;-85
2021/01/25 12:38:06;;;;;;;;;;;16.10;48.90;;;;;;5145822;27;19907;-85
2021/01/25 12:40:32;;;;;;;;;;;16.00;47.90;;;;;;5138866;27;20335;-84
2021/01/25 12:42:58;;;;;;;;;;;15.90;47.50;;;;;;5138360;27;19907;-85
2021/01/25 12:45:24;;;;;;;;;;;15.70;48.00;;;;;;5138932;27;19911;-86
2021/01/25 12:47:50;;;;;;;;;;;15.50;47.90;;;;;;5139294;27;19946;-85
2021/01/25 12:50:16;;;;;;;;;;;15.40;48.80;;;;;;5138921;27;19907;-85
2021/01/25 12:52:41;;;;;;;;;;;15.60;47.60;;;;;;5141965;27;19921;-85
2021/01/25 12:55:10;;;;;;;;;;;15.50;47.70;;;;;;5138926;27;19997;-85
2021/01/25 12:57:40;;;;;;;;;;;15.40;48.30;;;;;;5148613;27;20320;-84
2021/01/25 13:00:07;;;;;;;;;;;15.40;48.80;;;;;;5156024;27;19958;-84
2021/01/25 13:02:35;;;;;;;;;;;15.30;48.20;;;;;;5146451;27;19911;-85
2021/01/25 13:05:01;;;;;;;;;;;15.30;49.00;;;;;;5118333;27;19972;-85
2021/01/25 13:07:27;;;;;;;;;;;15.40;48.30;;;;;;5128974;27;19919;-84
2021/01/25 13:09:52;;;;;;;;;;;15.40;48.00;;;;;;5119713;27;19911;-85
2021/01/25 13:12:18;;;;;;;;;;;15.50;47.60;;;;;;5118130;27;19908;-83
2021/01/25 13:14:43;;;;;;;;;;;15.40;47.90;;;;;;5117999;27;19907;-86
2021/01/25 13:17:09;;;;;;;;;;;15.20;48.10;;;;;;5116596;27;19907;-85
2021/01/25 13:19:36;;;;;;;;;;;15.20;47.80;;;;;;5135533;27;19947;-85
2021/01/25 13:22:01;;;;;;;;;;;15.30;48.00;;;;;;5135899;27;19914;-86
2021/01/25 13:24:27;;;;;;;;;;;15.40;48.20;;;;;;5135437;27;20413;-85
2021/01/25 13:26:53;;;;;;;;;;;15.50;47.80;;;;;;5114792;27;20364;-86
2021/01/25 13:29:19;;;;;;;;;;;15.20;48.00;;;;;;5117331;27;19945;-86
2021/01/25 13:31:45;;;;;;;;;;;15.00;47.70;;;;;;5117733;27;19914;-85
2021/01/25 13:34:11;;;;;;;;;;;14.60;48.70;;;;;;5136185;27;20407;-85
2021/01/25 13:36:36;;;;;;;;;;;14.50;49.40;;;;;;5111362;28;19907;-86
2021/01/25 13:39:02;;;;;;;;;;;14.30;50.70;;;;;;5111040;27;20013;-85
2021/01/25 13:41:28;;;;;;;;;;;14.20;51.20;;;;;;5118889;27;19907;-86
2021/01/25 13:43:58;;;;;;;;;;;14.40;50.80;;;;;;5137351;27;19907;-86
2021/01/25 13:46:23;;;;;;;;;;;14.70;51.20;;;;;;5125814;27;19908;-88
2021/01/25 13:48:55;;;;;;;;;;;14.60;48.50;;;;;;5122545;28;19911;-86
2021/01/25 13:51:21;;;;;;;;;;;14.30;49.20;;;;;;5136281;27;19949;-86
2021/01/25 13:53:48;;;;;;;;;;;14.20;49.40;;;;;;5117976;27;19993;-86
2021/01/25 13:56:14;;;;;;;;;;;14.00;50.20;;;;;;5110379;28;20378;-86
2021/01/25 13:58:40;;;;;;;;;;;13.80;50.20;;;;;;5095910;28;19955;-87
2021/01/25 14:01:09;;;;;;;;;;;13.40;51.40;;;;;;5095704;28;19927;-86
2021/01/25 14:03:35;;;;;;;;;;;13.10;52.00;;;;;;5112620;28;19908;-87
2021/01/25 14:06:01;;;;;;;;;;;12.60;52.70;;;;;;5095792;28;20323;-85
2021/01/25 14:08:26;;;;;;;;;;;11.80;53.70;;;;;;5096343;28;19915;-84
2021/01/25 14:10:55;;;;;;;;;;;10.90;56.00;;;;;;5095295;28;19932;-85
2021/01/25 14:13:24;;;;;;;;;;;10.10;57.40;;;;;;5095804;28;19911;-86
2021/01/25 14:15:50;;;;;;;;;;;9.40;59.30;;;;;;5096252;28;19949;-85
2021/01/25 14:18:16;;;;;;;;;;;8.80;61.90;;;;;;5095736;28;19911;-86
2021/01/25 14:20:42;;;;;;;;;;;8.40;62.60;;;;;;5096422;28;19937;-85
2021/01/25 14:23:09;;;;;;;;;;;8.00;64.30;;;;;;5113258;28;20409;-85
2021/01/25 14:25:35;;;;;;;;;;;7.60;65.80;;;;;;5113089;28;20360;-85
2021/01/25 14:28:03;;;;;;;;;;;7.30;66.80;;;;;;5128098;27;20379;-86